sensor_id;sensor_type;location;lat;lon;timestamp;pressure;altitude;pressure_sealevel;temperature;humidity
55757;BME280;41676;44.610;44.078;2022-11-15T00:04:51;101035.78;;;2.97;90.91
55757;BME280;41676;44.610;44.078;2022-11-15T00:09:52;101005.19;;;2.83;91.15
55757;BME280;41676;44.610;44.078;2022-11-15T00:14:53;100998.16;;;2.84;90.82
55757;BME280;41676;44.610;44.078;2022-11-15T00:19:54;101023.38;;;2.99;91.07
55757;BME280;41676;44.610;44.078;2022-11-15T00:24:54;100810.63;;;1.58;91.16
55757;BME280;41676;44.610;44.078;2022-11-15T00:29:55;101014.91;;;2.68;91.61
55757;BME280;41676;44.610;44.078;2022-11-15T00:34:56;101023.94;;;2.64;91.66
55757;BME280;41676;44.610;44.078;2022-11-15T00:39:57;101024.03;;;2.63;91.50
55757;BME280;41676;44.610;44.078;2022-11-15T00:44:58;100927.63;;;1.99;91.71
55757;BME280;41676;44.610;44.078;2022-11-15T00:49:58;100956.00;;;2.07;91.79
55757;BME280;41676;44.610;44.078;2022-11-15T00:54:59;100988.69;;;2.28;92.01
55757;BME280;41676;44.610;44.078;2022-11-15T01:00:00;101027.38;;;2.52;92.07
55757;BME280;41676;44.610;44.078;2022-11-15T01:05:01;101000.94;;;2.28;92.02
55757;BME280;41676;44.610;44.078;2022-11-15T01:10:02;100951.53;;;1.95;91.70
55757;BME280;41676;44.610;44.078;2022-11-15T01:15:04;101029.47;;;2.33;92.12
55757;BME280;41676;44.610;44.078;2022-11-15T01:20:06;101037.78;;;2.39;92.13
55757;BME280;41676;44.610;44.078;2022-11-15T01:25:07;101040.53;;;2.38;92.28
55757;BME280;41676;44.610;44.078;2022-11-15T01:30:08;101060.84;;;2.34;92.15
55757;BME280;41676;44.610;44.078;2022-11-15T01:35:09;101044.88;;;2.24;92.02
55757;BME280;41676;44.610;44.078;2022-11-15T01:40:10;101058.91;;;2.23;92.44
55757;BME280;41676;44.610;44.078;2022-11-15T01:45:14;101055.19;;;2.13;92.73
55757;BME280;41676;44.610;44.078;2022-11-15T01:50:19;101054.53;;;2.10;92.80
55757;BME280;41676;44.610;44.078;2022-11-15T01:55:25;101034.50;;;1.94;92.87
55757;BME280;41676;44.610;44.078;2022-11-15T02:00:26;101028.16;;;1.98;92.54
55757;BME280;41676;44.610;44.078;2022-11-15T02:05:28;101055.63;;;2.20;92.84
55757;BME280;41676;44.610;44.078;2022-11-15T02:10:30;101059.66;;;2.25;92.79
55757;BME280;41676;44.610;44.078;2022-11-15T02:15:37;100944.03;;;1.62;93.37
55757;BME280;41676;44.610;44.078;2022-11-15T02:26:28;101055.41;;;2.37;93.89
55757;BME280;41676;44.610;44.078;2022-11-15T02:36:58;101060.22;;;2.31;93.01
55757;BME280;41676;44.610;44.078;2022-11-15T02:42:13;101006.38;;;1.98;92.73
55757;BME280;41676;44.610;44.078;2022-11-15T02:47:43;101035.44;;;2.08;92.34
55757;BME280;41676;44.610;44.078;2022-11-15T02:52:50;101075.56;;;2.37;92.57
55757;BME280;41676;44.610;44.078;2022-11-15T02:57:55;101006.56;;;1.95;92.11
55757;BME280;41676;44.610;44.078;2022-11-15T03:08:06;101075.94;;;2.31;92.57
55757;BME280;41676;44.610;44.078;2022-11-15T03:18:41;101084.06;;;2.40;93.41
55757;BME280;41676;44.610;44.078;2022-11-15T03:23:44;101080.22;;;2.46;93.11
55757;BME280;41676;44.610;44.078;2022-11-15T03:28:52;101087.56;;;2.54;93.66
55757;BME280;41676;44.610;44.078;2022-11-15T03:33:57;101016.59;;;2.15;93.30
55757;BME280;41676;44.610;44.078;2022-11-15T03:39:06;101082.25;;;2.55;93.24
55757;BME280;41676;44.610;44.078;2022-11-15T03:44:21;100995.50;;;2.04;93.66
55757;BME280;41676;44.610;44.078;2022-11-15T03:49:32;101008.00;;;2.13;93.06
55757;BME280;41676;44.610;44.078;2022-11-15T03:54:34;100949.84;;;1.79;92.48
55757;BME280;41676;44.610;44.078;2022-11-15T03:59:35;101097.94;;;2.69;92.89
55757;BME280;41676;44.610;44.078;2022-11-15T04:04:36;101084.28;;;2.64;92.70
55757;BME280;41676;44.610;44.078;2022-11-15T04:09:36;101082.13;;;2.57;92.71
55757;BME280;41676;44.610;44.078;2022-11-15T04:15:15;101055.66;;;2.47;92.90
55757;BME280;41676;44.610;44.078;2022-11-15T04:20:17;100961.34;;;1.91;92.52
55757;BME280;41676;44.610;44.078;2022-11-15T04:25:37;101113.72;;;2.82;92.56
55757;BME280;41676;44.610;44.078;2022-11-15T04:30:38;101134.22;;;2.90;92.49
55757;BME280;41676;44.610;44.078;2022-11-15T04:35:57;101131.91;;;2.85;92.42
55757;BME280;41676;44.610;44.078;2022-11-15T04:41:36;101149.00;;;3.05;92.12
55757;BME280;41676;44.610;44.078;2022-11-15T04:46:55;101139.97;;;3.09;91.72
55757;BME280;41676;44.610;44.078;2022-11-15T04:51:56;101120.63;;;3.10;91.44
55757;BME280;41676;44.610;44.078;2022-11-15T04:56:56;101157.47;;;3.36;91.09
55757;BME280;41676;44.610;44.078;2022-11-15T05:01:57;101157.69;;;3.46;90.86
55757;BME280;41676;44.610;44.078;2022-11-15T05:06:58;101110.97;;;3.11;91.10
55757;BME280;41676;44.610;44.078;2022-11-15T05:11:59;101172.22;;;3.51;91.29
55757;BME280;41676;44.610;44.078;2022-11-15T05:17:00;101166.97;;;3.64;90.77
55757;BME280;41676;44.610;44.078;2022-11-15T05:22:00;101166.78;;;3.67;90.38
55757;BME280;41676;44.610;44.078;2022-11-15T05:27:01;101156.78;;;3.59;90.78
55757;BME280;41676;44.610;44.078;2022-11-15T05:32:04;101139.13;;;3.61;90.04
55757;BME280;41676;44.610;44.078;2022-11-15T05:37:05;101084.06;;;3.47;89.53
55757;BME280;41676;44.610;44.078;2022-11-15T05:42:10;101173.00;;;4.04;89.84
55757;BME280;41676;44.610;44.078;2022-11-15T05:47:15;101180.75;;;4.19;90.43
55757;BME280;41676;44.610;44.078;2022-11-15T05:52:21;101131.66;;;4.06;89.67
55757;BME280;41676;44.610;44.078;2022-11-15T05:57:23;101181.38;;;4.48;89.80
55757;BME280;41676;44.610;44.078;2022-11-15T06:02:24;101034.34;;;3.70;88.93
55757;BME280;41676;44.610;44.078;2022-11-15T06:07:25;101090.84;;;4.14;88.46
55757;BME280;41676;44.610;44.078;2022-11-15T06:12:26;101185.00;;;4.71;87.80
55757;BME280;41676;44.610;44.078;2022-11-15T06:17:26;101152.91;;;4.66;87.45
55757;BME280;41676;44.610;44.078;2022-11-15T06:22:27;101177.91;;;4.84;87.40
55757;BME280;41676;44.610;44.078;2022-11-15T06:27:28;101115.81;;;4.45;87.12
55757;BME280;41676;44.610;44.078;2022-11-15T06:32:29;101182.63;;;4.92;85.75
55757;BME280;41676;44.610;44.078;2022-11-15T06:37:31;101212.72;;;5.00;85.58
55757;BME280;41676;44.610;44.078;2022-11-15T06:42:31;101172.94;;;5.16;84.80
55757;BME280;41676;44.610;44.078;2022-11-15T06:47:32;101188.94;;;5.72;82.47
55757;BME280;41676;44.610;44.078;2022-11-15T06:52:33;101169.84;;;5.93;81.24
55757;BME280;41676;44.610;44.078;2022-11-15T06:57:34;101178.63;;;6.38;79.33
55757;BME280;41676;44.610;44.078;2022-11-15T07:02:35;101179.47;;;6.61;78.91
55757;BME280;41676;44.610;44.078;2022-11-15T07:07:36;101180.28;;;6.73;78.55
55757;BME280;41676;44.610;44.078;2022-11-15T07:12:37;101173.31;;;6.61;77.94
55757;BME280;41676;44.610;44.078;2022-11-15T07:17:37;101147.16;;;6.58;76.74
55757;BME280;41676;44.610;44.078;2022-11-15T07:22:38;101089.41;;;6.21;76.33
55757;BME280;41676;44.610;44.078;2022-11-15T07:27:39;101176.91;;;6.71;75.62
55757;BME280;41676;44.610;44.078;2022-11-15T07:32:40;101150.44;;;6.50;75.28
55757;BME280;41676;44.610;44.078;2022-11-15T07:37:41;101199.72;;;6.72;74.28
55757;BME280;41676;44.610;44.078;2022-11-15T07:42:42;101085.09;;;5.98;74.05
55757;BME280;41676;44.610;44.078;2022-11-15T07:47:56;101107.28;;;6.06;73.84
55757;BME280;41676;44.610;44.078;2022-11-15T07:52:59;101194.91;;;6.77;72.36
55757;BME280;41676;44.610;44.078;2022-11-15T07:58:04;101164.47;;;6.51;72.27
55757;BME280;41676;44.610;44.078;2022-11-15T08:03:13;101187.72;;;6.68;70.98
55757;BME280;41676;44.610;44.078;2022-11-15T08:08:14;101187.25;;;6.74;70.95
55757;BME280;41676;44.610;44.078;2022-11-15T08:13:15;101190.13;;;6.71;70.41
55757;BME280;41676;44.610;44.078;2022-11-15T08:18:17;101128.25;;;6.42;70.62
55757;BME280;41676;44.610;44.078;2022-11-15T08:23:17;101110.75;;;6.29;69.33
55757;BME280;41676;44.610;44.078;2022-11-15T08:28:18;101104.97;;;6.35;68.72
55757;BME280;41676;44.610;44.078;2022-11-15T08:33:19;101176.28;;;6.79;68.56
55757;BME280;41676;44.610;44.078;2022-11-15T08:38:20;101070.44;;;6.27;67.74
55757;BME280;41676;44.610;44.078;2022-11-15T08:43:21;101171.47;;;6.95;67.65
55757;BME280;41676;44.610;44.078;2022-11-15T08:48:22;101129.41;;;6.71;66.75
55757;BME280;41676;44.610;44.078;2022-11-15T08:53:23;101079.53;;;6.46;66.44
55757;BME280;41676;44.610;44.078;2022-11-15T08:58:24;101160.50;;;7.00;65.89
55757;BME280;41676;44.610;44.078;2022-11-15T09:03:25;101099.66;;;6.58;64.73
55757;BME280;41676;44.610;44.078;2022-11-15T09:08:29;101165.00;;;6.88;64.12
55757;BME280;41676;44.610;44.078;2022-11-15T09:13:31;101129.16;;;6.74;64.09
55757;BME280;41676;44.610;44.078;2022-11-15T09:18:34;101153.34;;;6.91;63.93
55757;BME280;41676;44.610;44.078;2022-11-15T09:23:35;101131.63;;;6.87;63.42
55757;BME280;41676;44.610;44.078;2022-11-15T09:28:36;101123.84;;;6.85;62.87
55757;BME280;41676;44.610;44.078;2022-11-15T09:33:38;101074.72;;;6.51;63.22
55757;BME280;41676;44.610;44.078;2022-11-15T09:38:39;101083.81;;;6.58;62.51
55757;BME280;41676;44.610;44.078;2022-11-15T09:48:56;101070.03;;;6.86;60.84
55757;BME280;41676;44.610;44.078;2022-11-15T09:59:23;101134.41;;;7.39;59.08
55757;BME280;41676;44.610;44.078;2022-11-15T10:04:28;101115.81;;;6.76;59.71
55757;BME280;41676;44.610;44.078;2022-11-15T10:09:39;101069.88;;;6.67;59.15
55757;BME280;41676;44.610;44.078;2022-11-15T10:14:42;101136.53;;;7.24;59.91
55757;BME280;41676;44.610;44.078;2022-11-15T10:19:55;101137.25;;;7.47;58.44
55757;BME280;41676;44.610;44.078;2022-11-15T10:30:16;101104.75;;;7.35;58.57
55757;BME280;41676;44.610;44.078;2022-11-15T10:35:35;101105.69;;;7.45;56.88
55757;BME280;41676;44.610;44.078;2022-11-15T10:40:37;101115.78;;;7.61;57.82
55757;BME280;41676;44.610;44.078;2022-11-15T10:45:38;101119.53;;;7.59;57.75
55757;BME280;41676;44.610;44.078;2022-11-15T10:50:41;101130.63;;;7.73;57.57
55757;BME280;41676;44.610;44.078;2022-11-15T10:55:47;101131.19;;;7.77;56.58
55757;BME280;41676;44.610;44.078;2022-11-15T11:00:48;101142.09;;;7.84;57.50
55757;BME280;41676;44.610;44.078;2022-11-15T11:06:03;101114.28;;;7.68;55.91
55757;BME280;41676;44.610;44.078;2022-11-15T11:11:05;101133.91;;;7.87;57.32
55757;BME280;41676;44.610;44.078;2022-11-15T11:16:19;101120.19;;;7.72;56.89
55757;BME280;41676;44.610;44.078;2022-11-15T11:26:35;101132.16;;;7.76;57.20
55757;BME280;41676;44.610;44.078;2022-11-15T11:31:50;101132.69;;;7.70;56.11
55757;BME280;41676;44.610;44.078;2022-11-15T11:37:20;101125.66;;;7.59;55.51
55757;BME280;41676;44.610;44.078;2022-11-15T11:53:37;101150.88;;;7.10;56.79
55757;BME280;41676;44.610;44.078;2022-11-15T11:58:43;101165.91;;;7.09;57.77
55757;BME280;41676;44.610;44.078;2022-11-15T12:03:53;101159.19;;;7.05;56.42
55757;BME280;41676;44.610;44.078;2022-11-15T12:09:06;101154.41;;;6.99;57.83
55757;BME280;41676;44.610;44.078;2022-11-15T12:14:16;101085.16;;;6.52;57.54
55757;BME280;41676;44.610;44.078;2022-11-15T12:19:21;101117.88;;;6.61;57.90
55757;BME280;41676;44.610;44.078;2022-11-15T12:24:31;101118.63;;;6.52;57.26
55757;BME280;41676;44.610;44.078;2022-11-15T12:29:48;101136.50;;;6.59;57.29
55757;BME280;41676;44.610;44.078;2022-11-15T12:34:50;101155.09;;;6.58;58.11
55757;BME280;41676;44.610;44.078;2022-11-15T12:40:18;101141.91;;;6.47;57.22
55757;BME280;41676;44.610;44.078;2022-11-15T12:45:29;101166.41;;;6.37;58.10
55757;BME280;41676;44.610;44.078;2022-11-15T12:56:15;101162.31;;;6.33;59.16
55757;BME280;41676;44.610;44.078;2022-11-15T13:06:43;101178.00;;;6.12;60.04
55757;BME280;41676;44.610;44.078;2022-11-15T13:11:53;101156.97;;;5.88;59.81
55757;BME280;41676;44.610;44.078;2022-11-15T13:17:01;101108.00;;;5.39;60.31
55757;BME280;41676;44.610;44.078;2022-11-15T13:22:06;101149.47;;;5.48;60.30
55757;BME280;41676;44.610;44.078;2022-11-15T13:27:27;101013.38;;;4.54;60.81
55757;BME280;41676;44.610;44.078;2022-11-15T13:32:29;101171.34;;;5.38;61.07
55757;BME280;41676;44.610;44.078;2022-11-15T13:37:30;101176.91;;;5.22;61.96
55757;BME280;41676;44.610;44.078;2022-11-15T13:42:32;101141.63;;;4.76;62.41
55757;BME280;41676;44.610;44.078;2022-11-15T13:47:33;101080.94;;;4.17;63.08
55757;BME280;41676;44.610;44.078;2022-11-15T13:52:37;101190.19;;;4.60;64.03
55757;BME280;41676;44.610;44.078;2022-11-15T13:58:16;101191.44;;;4.54;65.03
55757;BME280;41676;44.610;44.078;2022-11-15T14:03:23;101124.22;;;3.87;65.67
55757;BME280;41676;44.610;44.078;2022-11-15T14:08:25;101191.28;;;4.19;65.11
55757;BME280;41676;44.610;44.078;2022-11-15T14:13:31;101208.44;;;4.24;66.21
55757;BME280;41676;44.610;44.078;2022-11-15T14:18:44;101190.13;;;3.97;65.39
55757;BME280;41676;44.610;44.078;2022-11-15T14:23:46;101140.91;;;3.61;65.15
55757;BME280;41676;44.610;44.078;2022-11-15T14:28:47;101193.91;;;3.80;65.64
55757;BME280;41676;44.610;44.078;2022-11-15T14:33:48;101160.53;;;3.42;66.36
55757;BME280;41676;44.610;44.078;2022-11-15T14:38:49;101114.94;;;2.91;66.89
55757;BME280;41676;44.610;44.078;2022-11-15T14:43:51;101189.03;;;2.94;67.78
55757;BME280;41676;44.610;44.078;2022-11-15T14:48:52;101177.94;;;2.77;68.02
55757;BME280;41676;44.610;44.078;2022-11-15T14:53:53;101183.84;;;2.66;68.16
55757;BME280;41676;44.610;44.078;2022-11-15T14:58:55;101203.22;;;2.78;69.34
55757;BME280;41676;44.610;44.078;2022-11-15T15:03:56;101213.06;;;2.74;70.01
55757;BME280;41676;44.610;44.078;2022-11-15T15:08:58;101127.25;;;2.06;70.43
55757;BME280;41676;44.610;44.078;2022-11-15T15:13:59;101205.41;;;2.57;70.78
55757;BME280;41676;44.610;44.078;2022-11-15T15:19:01;101135.59;;;2.13;70.35
55757;BME280;41676;44.610;44.078;2022-11-15T15:24:02;101220.22;;;2.58;70.10
55757;BME280;41676;44.610;44.078;2022-11-15T15:29:03;101208.22;;;2.39;69.88
55757;BME280;41676;44.610;44.078;2022-11-15T15:34:04;101213.75;;;2.20;70.06
55757;BME280;41676;44.610;44.078;2022-11-15T15:39:05;101217.97;;;2.09;70.75
55757;BME280;41676;44.610;44.078;2022-11-15T15:44:05;101185.88;;;1.60;71.93
55757;BME280;41676;44.610;44.078;2022-11-15T15:49:09;101220.47;;;1.96;72.77
55757;BME280;41676;44.610;44.078;2022-11-15T15:54:10;101116.50;;;1.37;71.89
55757;BME280;41676;44.610;44.078;2022-11-15T15:59:11;101200.25;;;1.83;71.62
55757;BME280;41676;44.610;44.078;2022-11-15T16:04:11;101230.88;;;1.67;72.05
55757;BME280;41676;44.610;44.078;2022-11-15T16:09:14;101226.03;;;1.45;72.44
55757;BME280;41676;44.610;44.078;2022-11-15T16:14:16;101230.81;;;1.23;72.57
55757;BME280;41676;44.610;44.078;2022-11-15T16:19:16;101217.47;;;0.96;73.18
55757;BME280;41676;44.610;44.078;2022-11-15T16:24:18;101198.94;;;0.84;74.58
55757;BME280;41676;44.610;44.078;2022-11-15T16:29:19;101202.63;;;0.80;74.54
55757;BME280;41676;44.610;44.078;2022-11-15T16:34:20;101236.81;;;0.93;74.32
55757;BME280;41676;44.610;44.078;2022-11-15T16:39:20;101221.53;;;0.70;74.43
55757;BME280;41676;44.610;44.078;2022-11-15T16:44:23;101220.31;;;0.59;75.28
55757;BME280;41676;44.610;44.078;2022-11-15T16:49:25;101225.38;;;0.62;75.47
55757;BME280;41676;44.610;44.078;2022-11-15T16:54:27;101119.44;;;0.08;75.59
55757;BME280;41676;44.610;44.078;2022-11-15T16:59:28;101197.06;;;0.55;75.69
55757;BME280;41676;44.610;44.078;2022-11-15T17:04:30;101140.16;;;0.11;75.84
55757;BME280;41676;44.610;44.078;2022-11-15T17:09:33;101211.13;;;0.36;76.39
55757;BME280;41676;44.610;44.078;2022-11-15T17:14:33;101220.06;;;0.15;76.60
55757;BME280;41676;44.610;44.078;2022-11-15T17:19:34;101101.03;;;-0.57;76.56
55757;BME280;41676;44.610;44.078;2022-11-15T17:24:35;101174.47;;;-0.30;76.65
55757;BME280;41676;44.610;44.078;2022-11-15T17:29:36;101209.34;;;0.04;76.91
55757;BME280;41676;44.610;44.078;2022-11-15T17:34:37;101127.72;;;-0.17;76.53
55757;BME280;41676;44.610;44.078;2022-11-15T17:39:38;101113.44;;;-0.28;76.73
55757;BME280;41676;44.610;44.078;2022-11-15T17:44:39;101119.59;;;-0.29;76.72
55757;BME280;41676;44.610;44.078;2022-11-15T17:49:39;101194.56;;;0.03;76.38
55757;BME280;41676;44.610;44.078;2022-11-15T17:54:40;101211.81;;;-0.11;76.36
55757;BME280;41676;44.610;44.078;2022-11-15T17:59:41;101183.94;;;-0.28;77.41
55757;BME280;41676;44.610;44.078;2022-11-15T18:04:42;101198.59;;;-0.08;76.99
55757;BME280;41676;44.610;44.078;2022-11-15T18:09:42;101189.97;;;-0.10;77.70
55757;BME280;41676;44.610;44.078;2022-11-15T18:14:43;101097.84;;;-0.62;77.41
55757;BME280;41676;44.610;44.078;2022-11-15T18:19:44;101183.63;;;-0.21;77.84
55757;BME280;41676;44.610;44.078;2022-11-15T18:24:45;101164.91;;;-0.30;77.25
55757;BME280;41676;44.610;44.078;2022-11-15T18:29:46;101187.22;;;-0.07;76.45
55757;BME280;41676;44.610;44.078;2022-11-15T18:34:47;101143.16;;;-0.30;76.48
55757;BME280;41676;44.610;44.078;2022-11-15T18:39:47;101152.06;;;-0.17;76.61
55757;BME280;41676;44.610;44.078;2022-11-15T18:44:48;101174.84;;;-0.03;76.22
55757;BME280;41676;44.610;44.078;2022-11-15T18:49:49;101156.69;;;0.11;75.30
55757;BME280;41676;44.610;44.078;2022-11-15T18:54:50;101165.78;;;0.20;75.70
55757;BME280;41676;44.610;44.078;2022-11-15T18:59:51;101154.94;;;0.28;75.38
55757;BME280;41676;44.610;44.078;2022-11-15T19:04:51;101118.44;;;0.26;75.37
55757;BME280;41676;44.610;44.078;2022-11-15T19:09:52;101146.94;;;0.31;75.10
55757;BME280;41676;44.610;44.078;2022-11-15T19:14:53;101085.72;;;0.03;74.81
55757;BME280;41676;44.610;44.078;2022-11-15T19:19:54;101023.81;;;-0.28;75.13
55757;BME280;41676;44.610;44.078;2022-11-15T19:24:54;101099.38;;;0.08;74.92
55757;BME280;41676;44.610;44.078;2022-11-15T19:29:55;101037.03;;;-0.31;75.26
55757;BME280;41676;44.610;44.078;2022-11-15T19:34:56;101085.06;;;0.15;75.26
55757;BME280;41676;44.610;44.078;2022-11-15T19:39:56;101078.28;;;0.11;75.50
55757;BME280;41676;44.610;44.078;2022-11-15T19:44:57;101089.13;;;0.21;75.75
55757;BME280;41676;44.610;44.078;2022-11-15T19:49:58;101077.47;;;0.11;75.25
55757;BME280;41676;44.610;44.078;2022-11-15T19:54:59;101002.75;;;-0.57;75.83
55757;BME280;41676;44.610;44.078;2022-11-15T20:00:00;101089.13;;;-0.12;75.66
55757;BME280;41676;44.610;44.078;2022-11-15T20:05:01;101081.38;;;-0.14;75.96
55757;BME280;41676;44.610;44.078;2022-11-15T20:10:02;101054.53;;;-0.33;76.49
55757;BME280;41676;44.610;44.078;2022-11-15T20:15:03;101085.41;;;-0.24;76.62
55757;BME280;41676;44.610;44.078;2022-11-15T20:20:04;101064.09;;;-0.32;75.86
55757;BME280;41676;44.610;44.078;2022-11-15T20:25:05;101067.66;;;-0.17;76.05
55757;BME280;41676;44.610;44.078;2022-11-15T20:30:07;101057.78;;;-0.12;76.92
55757;BME280;41676;44.610;44.078;2022-11-15T20:35:08;101057.22;;;-0.02;76.53
55757;BME280;41676;44.610;44.078;2022-11-15T20:40:09;101045.69;;;0.03;76.11
55757;BME280;41676;44.610;44.078;2022-11-15T20:45:10;101043.41;;;-0.04;75.98
55757;BME280;41676;44.610;44.078;2022-11-15T20:50:11;101035.78;;;-0.24;75.75
55757;BME280;41676;44.610;44.078;2022-11-15T20:55:12;101029.88;;;-0.28;75.56
55757;BME280;41676;44.610;44.078;2022-11-15T21:00:13;101060.25;;;-0.09;75.88
55757;BME280;41676;44.610;44.078;2022-11-15T21:05:14;101025.38;;;-0.08;76.61
55757;BME280;41676;44.610;44.078;2022-11-15T21:10:17;101034.06;;;-0.08;75.68
55757;BME280;41676;44.610;44.078;2022-11-15T21:15:36;101031.09;;;-0.02;76.66
55757;BME280;41676;44.610;44.078;2022-11-15T21:20:37;101012.56;;;-0.13;76.01
55757;BME280;41676;44.610;44.078;2022-11-15T21:25:38;101020.66;;;-0.02;75.87
55757;BME280;41676;44.610;44.078;2022-11-15T21:30:38;100959.63;;;-0.48;75.85
55757;BME280;41676;44.610;44.078;2022-11-15T21:35:39;101012.22;;;-0.07;75.82
55757;BME280;41676;44.610;44.078;2022-11-15T21:40:42;100899.41;;;-0.61;76.30
55757;BME280;41676;44.610;44.078;2022-11-15T21:45:48;100998.31;;;0.09;75.76
55757;BME280;41676;44.610;44.078;2022-11-15T21:50:58;100935.31;;;-0.17;76.06
55757;BME280;41676;44.610;44.078;2022-11-15T21:56:00;100908.63;;;-0.38;75.26
55757;BME280;41676;44.610;44.078;2022-11-15T22:01:01;100898.75;;;-0.49;76.05
55757;BME280;41676;44.610;44.078;2022-11-15T22:06:20;100984.66;;;-0.12;75.49
55757;BME280;41676;44.610;44.078;2022-11-15T22:11:21;100953.28;;;-0.27;75.63
55757;BME280;41676;44.610;44.078;2022-11-15T22:16:22;100965.13;;;-0.21;75.94
55757;BME280;41676;44.610;44.078;2022-11-15T22:21:22;100889.41;;;-0.68;76.07
55757;BME280;41676;44.610;44.078;2022-11-15T22:26:23;100919.41;;;-0.60;75.47
55757;BME280;41676;44.610;44.078;2022-11-15T22:31:24;100785.91;;;-1.49;76.23
55757;BME280;41676;44.610;44.078;2022-11-15T22:36:25;100833.97;;;-1.21;76.41
55757;BME280;41676;44.610;44.078;2022-11-15T22:41:26;100927.69;;;-0.69;77.05
55757;BME280;41676;44.610;44.078;2022-11-15T22:46:27;100916.69;;;-0.74;76.55
55757;BME280;41676;44.610;44.078;2022-11-15T22:51:29;100903.25;;;-0.84;76.77
55757;BME280;41676;44.610;44.078;2022-11-15T22:56:30;100823.09;;;-1.29;76.95
55757;BME280;41676;44.610;44.078;2022-11-15T23:01:31;100763.56;;;-1.70;76.94
55757;BME280;41676;44.610;44.078;2022-11-15T23:06:31;100883.66;;;-0.91;77.38
55757;BME280;41676;44.610;44.078;2022-11-15T23:11:32;100904.69;;;-0.78;77.01
55757;BME280;41676;44.610;44.078;2022-11-15T23:16:52;100898.97;;;-0.69;76.49
55757;BME280;41676;44.610;44.078;2022-11-15T23:21:52;100899.16;;;-0.72;76.63
55757;BME280;41676;44.610;44.078;2022-11-15T23:27:11;100893.25;;;-0.76;77.04
55757;BME280;41676;44.610;44.078;2022-11-15T23:32:15;100860.59;;;-0.99;77.06
55757;BME280;41676;44.610;44.078;2022-11-15T23:37:34;100861.28;;;-0.95;76.75
55757;BME280;41676;44.610;44.078;2022-11-15T23:42:35;100868.16;;;-0.94;76.79
55757;BME280;41676;44.610;44.078;2022-11-15T23:47:36;100873.47;;;-0.96;77.43
55757;BME280;41676;44.610;44.078;2022-11-15T23:52:36;100687.47;;;-2.10;77.74
55757;BME280;41676;44.610;44.078;2022-11-15T23:57:37;100862.66;;;-1.05;77.76
